Time;durP1;ratioP1;P1;durP2;ratioP2;P2;SDS_P1;SDS_P2;PMS_P1;PMS_P2;Temp;Humidity;BMP_temperature;BMP_pressure;BME280_temperature;BME280_humidity;BME280_pressure;Samples;Min_cycle;Max_cycle;Signal;HPM_P1;HPM_P2
2022/03/07 00:00:36;;;;;;;37.30;17.65;;;-2.10;99.90;;;;;;5035947;28;20053;-60
2022/03/07 00:03:03;;;;;;;31.50;18.38;;;-2.10;99.90;;;;;;5035116;28;20041;-60
2022/03/07 00:05:30;;;;;;;35.95;18.60;;;-2.10;99.90;;;;;;5035730;28;20075;-60
2022/03/07 00:07:57;;;;;;;31.02;18.35;;;-2.10;99.90;;;;;;5035655;28;20057;-60
2022/03/07 00:10:44;;;;;;;27.95;15.70;;;-2.20;99.90;;;;;;5035491;28;20140;-60
2022/03/07 00:13:10;;;;;;;;;;;-2.20;99.90;;;;;;5035173;28;20057;-60
2022/03/07 00:15:38;;;;;;;34.25;18.17;;;-2.20;99.90;;;;;;5034197;28;19932;-60
2022/03/07 00:18:05;;;;;;;30.25;15.23;;;-2.30;99.90;;;;;;5035264;28;20079;-60
2022/03/07 00:20:32;;;;;;;31.30;16.70;;;-2.30;99.90;;;;;;5035437;28;20115;-60
2022/03/07 00:23:01;;;;;;;33.05;18.73;;;-2.30;99.90;;;;;;5045639;28;20070;-60
2022/03/07 00:25:28;;;;;;;38.45;20.27;;;-2.30;99.90;;;;;;5062392;28;20502;-60
2022/03/07 00:27:54;;;;;;;36.50;20.88;;;-2.40;99.90;;;;;;5035518;28;20041;-60
2022/03/07 00:30:22;;;;;;;33.10;18.90;;;-2.40;99.90;;;;;;5072189;28;20043;-60
2022/03/07 00:32:49;;;;;;;37.58;18.50;;;-2.50;99.90;;;;;;5075209;28;20052;-60
2022/03/07 00:35:16;;;;;;;35.92;18.08;;;-2.50;99.90;;;;;;5032975;28;1055004;-60
2022/03/07 00:37:43;;;;;;;32.97;17.38;;;-2.50;99.90;;;;;;5076255;28;20098;-60
2022/03/07 00:40:10;;;;;;;31.83;16.90;;;-2.60;99.90;;;;;;5076098;28;20066;-60
2022/03/07 00:42:37;;;;;;;35.45;17.77;;;-2.60;99.90;;;;;;5074969;28;20112;-60
2022/03/07 00:45:07;;;;;;;33.47;18.13;;;-2.60;99.90;;;;;;5075095;28;20047;-60
2022/03/07 00:47:34;;;;;;;34.03;18.02;;;-2.60;99.90;;;;;;5076006;28;20062;-60
2022/03/07 00:50:05;;;;;;;35.58;18.98;;;-2.60;99.90;;;;;;5076217;28;20827;-60
2022/03/07 00:52:32;;;;;;;34.40;18.25;;;-2.60;99.90;;;;;;5054745;28;20040;-60
2022/03/07 00:55:00;;;;;;;36.38;19.70;;;-2.70;99.90;;;;;;5033148;28;20045;-60
2022/03/07 00:57:27;;;;;;;32.58;18.17;;;-2.70;99.90;;;;;;5034219;28;20865;-60
2022/03/07 00:59:55;;;;;;;30.98;18.02;;;-2.70;99.90;;;;;;5034215;28;20056;-60
2022/03/07 01:02:21;;;;;;;31.05;17.42;;;-2.70;99.90;;;;;;5035348;28;20457;-60
2022/03/07 01:04:49;;;;;;;33.38;17.50;;;-2.80;99.90;;;;;;5033720;28;20051;-60
2022/03/07 01:07:15;;;;;;;34.08;17.17;;;-2.80;99.90;;;;;;5035641;28;20094;-60
2022/03/07 01:09:42;;;;;;;36.75;19.92;;;-2.80;99.90;;;;;;5034031;28;20041;-60
2022/03/07 01:12:09;;;;;;;;;;;-2.90;99.90;;;;;;5034017;28;20728;-60
2022/03/07 01:14:36;;;;;;;33.50;20.30;;;-2.90;99.90;;;;;;5033659;28;19932;-60
2022/03/07 01:17:03;;;;;;;36.70;18.50;;;-2.90;99.90;;;;;;5018043;28;20114;-60
2022/03/07 01:19:30;;;;;;;36.03;19.48;;;-3.00;99.90;;;;;;5034663;28;20053;-60
2022/03/07 01:21:57;;;;;;;38.08;19.50;;;-3.00;99.90;;;;;;5035274;28;20037;-60
2022/03/07 01:24:23;;;;;;;;;;;-3.00;99.90;;;;;;5067916;28;20448;-60
2022/03/07 01:26:50;;;;;;;35.08;19.05;;;-3.00;99.90;;;;;;5050064;28;19924;-60
2022/03/07 01:29:20;;;;;;;31.13;16.48;;;-3.00;99.90;;;;;;5053719;28;20729;-60
2022/03/07 01:31:47;;;;;;;29.25;17.60;;;-3.00;99.90;;;;;;5075368;28;20105;-60
2022/03/07 01:34:14;;;;;;;28.77;18.67;;;-3.10;99.90;;;;;;5067811;28;20051;-60
2022/03/07 01:36:41;;;;;;;35.95;18.88;;;-3.10;99.90;;;;;;5073226;28;20044;-60
2022/03/07 01:39:08;;;;;;;34.58;17.85;;;-3.10;99.90;;;;;;5074232;28;20079;-60
2022/03/07 01:41:35;;;;;;;36.17;18.27;;;-3.20;99.90;;;;;;5072383;28;20509;-60
2022/03/07 01:44:02;;;;;;;36.80;18.58;;;-3.20;99.90;;;;;;5074459;28;20044;-60
2022/03/07 01:46:32;;;;;;;35.55;18.83;;;-3.20;99.90;;;;;;5074596;28;20554;-60
2022/03/07 01:49:00;;;;;;;41.10;20.52;;;-3.20;99.90;;;;;;5073131;28;20044;-60
2022/03/07 01:51:28;;;;;;;38.25;21.65;;;-3.30;99.90;;;;;;5064996;28;20586;-60
2022/03/07 01:53:55;;;;;;;36.70;21.13;;;-3.30;99.90;;;;;;5032381;28;20061;-60
2022/03/07 01:56:21;;;;;;;35.50;20.17;;;-3.40;99.90;;;;;;5032658;28;20064;-60
2022/03/07 01:58:48;;;;;;;42.53;22.70;;;-3.40;99.90;;;;;;5032619;28;20308;-60
2022/03/07 02:01:15;;;;;;;39.45;20.83;;;-3.40;99.90;;;;;;5033218;28;20055;-59
2022/03/07 02:03:42;;;;;;;42.90;20.45;;;-3.50;99.90;;;;;;5033011;28;20128;-60
2022/03/07 02:06:10;;;;;;;35.83;19.70;;;-3.50;99.90;;;;;;5033591;28;20852;-60
2022/03/07 02:08:38;;;;;;;41.08;21.70;;;-3.50;99.90;;;;;;5032959;28;20049;-60
2022/03/07 02:11:12;;;;;;;38.13;21.88;;;-3.50;99.90;;;;;;5032931;28;20036;-60
2022/03/07 02:13:42;;;;;;;33.08;20.25;;;-3.50;99.90;;;;;;5032444;28;20758;-60
2022/03/07 02:16:11;;;;;;;39.58;20.08;;;-3.50;99.90;;;;;;5032677;28;20502;-59
2022/03/07 02:18:38;;;;;;;36.08;20.83;;;-3.50;99.90;;;;;;5032342;28;20049;-59
2022/03/07 02:21:26;;;;;;;;;;;-3.60;99.90;;;;;;5034737;28;20706;-60
2022/03/07 02:24:19;;;;;;;46.40;19.77;;;-3.60;99.90;;;;;;5063246;28;20637;-60
2022/03/07 02:27:08;;;;;;;38.60;21.70;;;-3.60;99.90;;;;;;5033921;28;20056;-60
2022/03/07 02:29:39;;;;;;;33.88;18.52;;;-3.60;99.90;;;;;;5059973;28;20071;-60
2022/03/07 02:32:08;;;;;;;46.00;23.08;;;-3.60;99.90;;;;;;5072994;28;20039;-60
2022/03/07 02:34:41;;;;;;;34.53;19.55;;;-3.70;99.90;;;;;;5065638;28;20044;-60
2022/03/07 02:37:09;;;;;;;37.92;19.23;;;-3.70;99.90;;;;;;5073302;28;20051;-60
2022/03/07 02:39:48;;;;;;;37.47;20.15;;;-3.70;99.90;;;;;;5072932;28;20040;-60
2022/03/07 02:42:35;;;;;;;38.90;21.33;;;-3.70;99.90;;;;;;5072027;28;20048;-60
2022/03/07 02:45:02;;;;;;;40.95;21.60;;;-3.80;99.90;;;;;;5073007;28;20036;-60
2022/03/07 02:47:29;;;;;;;38.85;22.85;;;-3.80;99.90;;;;;;5072911;28;20055;-59
2022/03/07 02:49:56;;;;;;;41.92;19.90;;;-3.70;99.90;;;;;;5072335;28;20044;-59
2022/03/07 02:52:23;;;;;;;33.05;18.85;;;-3.80;99.90;;;;;;5057322;28;20078;-60
2022/03/07 02:54:49;;;;;;;;;;;-3.80;99.90;;;;;;5033553;28;20118;-60
2022/03/07 02:57:16;;;;;;;36.53;19.83;;;-3.80;99.90;;;;;;5032594;28;19925;-60
2022/03/07 02:59:46;;;;;;;32.33;18.88;;;-3.80;99.90;;;;;;5033226;28;20037;-59
2022/03/07 03:02:13;;;;;;;35.75;21.30;;;-3.80;99.90;;;;;;5033703;28;20053;-60
2022/03/07 03:04:40;;;;;;;33.67;17.80;;;-3.90;99.90;;;;;;5032614;28;20083;-60
2022/03/07 03:07:07;;;;;;;37.83;20.70;;;-3.90;99.90;;;;;;5034524;28;20049;-59
2022/03/07 03:09:34;;;;;;;33.65;19.92;;;-3.90;99.90;;;;;;5034201;28;20107;-60
2022/03/07 03:12:00;;;;;;;;;;;-3.90;99.90;;;;;;5034420;28;20111;-60
2022/03/07 03:14:27;;;;;;;37.30;19.83;;;-4.00;99.90;;;;;;5033207;28;19968;-59
2022/03/07 03:16:54;;;;;;;36.78;18.77;;;-3.90;99.90;;;;;;5034002;28;20045;-60
2022/03/07 03:19:21;;;;;;;41.25;22.17;;;-4.00;99.90;;;;;;5033784;28;20136;-59
2022/03/07 03:21:48;;;;;;;38.33;21.38;;;-4.00;99.90;;;;;;5033757;28;20142;-59
2022/03/07 03:24:15;;;;;;;35.85;20.75;;;-4.00;99.90;;;;;;5064743;28;20090;-59
2022/03/07 03:26:42;;;;;;;40.78;22.10;;;-4.10;99.90;;;;;;5055577;28;20097;-60
2022/03/07 03:29:09;;;;;;;39.05;20.05;;;-4.10;99.90;;;;;;5064804;28;20047;-60
2022/03/07 03:31:35;;;;;;;40.00;20.52;;;-4.10;99.90;;;;;;5077929;28;20547;-59
2022/03/07 03:34:02;;;;;;;36.78;20.95;;;-4.20;99.90;;;;;;5070198;28;20044;-59
2022/03/07 03:36:29;;;;;;;35.20;19.63;;;-4.20;99.90;;;;;;5077463;28;20040;-59
2022/03/07 03:38:57;;;;;;;43.10;20.92;;;-4.30;99.90;;;;;;5077713;28;20123;-59
2022/03/07 03:41:24;;;;;;;42.08;22.48;;;-4.30;99.90;;;;;;5077271;28;20036;-59
2022/03/07 03:43:50;;;;;;;36.15;19.95;;;-4.30;99.90;;;;;;5076466;28;20153;-59
2022/03/07 03:46:17;;;;;;;43.15;21.85;;;-4.30;99.90;;;;;;5076974;28;20043;-60
2022/03/07 03:48:44;;;;;;;42.58;21.63;;;-4.40;99.90;;;;;;5045099;28;20044;-59
2022/03/07 03:51:11;;;;;;;43.08;23.65;;;-4.40;99.90;;;;;;5041837;28;20043;-59
2022/03/07 03:53:38;;;;;;;47.53;24.23;;;-4.40;99.90;;;;;;5061924;28;20040;-60
2022/03/07 03:56:05;;;;;;;42.65;22.45;;;-4.40;99.90;;;;;;5056926;28;20059;-59
2022/03/07 03:58:31;;;;;;;41.83;22.45;;;-4.50;99.90;;;;;;5056918;28;20049;-59
2022/03/07 04:00:58;;;;;;;42.72;21.95;;;-4.40;99.90;;;;;;5053067;28;20048;-60
2022/03/07 04:03:26;;;;;;;42.28;23.80;;;-4.50;99.90;;;;;;5055674;28;20056;-59
2022/03/07 04:05:53;;;;;;;44.15;22.48;;;-4.50;99.90;;;;;;5056252;28;20575;-59
2022/03/07 04:08:20;;;;;;;41.85;24.13;;;-4.50;99.90;;;;;;5056681;28;20083;-59
2022/03/07 04:10:50;;;;;;;41.05;23.13;;;-4.50;99.90;;;;;;5056121;28;20049;-59
2022/03/07 04:13:17;;;;;;;40.28;20.77;;;-4.50;99.90;;;;;;5054540;28;20431;-59
2022/03/07 04:15:43;;;;;;;38.63;21.25;;;-4.50;99.90;;;;;;5056842;28;20243;-60
2022/03/07 04:18:10;;;;;;;42.20;20.90;;;-4.50;99.90;;;;;;5055985;28;20131;-59
2022/03/07 04:20:37;;;;;;;40.65;21.80;;;-4.50;99.90;;;;;;5056958;28;20521;-59
2022/03/07 04:23:04;;;;;;;38.70;21.45;;;-4.50;99.90;;;;;;5060930;28;20053;-59
2022/03/07 04:25:33;;;;;;;44.33;23.02;;;-4.50;99.90;;;;;;5067619;28;20047;-59
2022/03/07 04:28:00;;;;;;;42.65;21.45;;;-4.50;99.90;;;;;;5055935;28;20106;-59
2022/03/07 04:30:28;;;;;;;48.35;24.25;;;-4.50;99.90;;;;;;5075454;28;20050;-59
2022/03/07 04:32:54;;;;;;;42.05;23.85;;;-4.60;99.90;;;;;;5074413;28;20067;-59
2022/03/07 04:35:21;;;;;;;45.08;23.42;;;-4.60;99.90;;;;;;5070343;28;20468;-59
2022/03/07 04:37:52;;;;;;;47.55;25.17;;;-4.60;99.90;;;;;;5075822;28;20046;-59
2022/03/07 04:40:19;;;;;;;45.72;23.40;;;-4.60;99.90;;;;;;5075377;28;20071;-59
2022/03/07 04:42:45;;;;;;;39.35;20.85;;;-4.70;99.90;;;;;;5075892;28;20128;-59
2022/03/07 04:45:13;;;;;;;40.78;22.95;;;-4.70;99.90;;;;;;5075692;28;20085;-59
2022/03/07 04:47:41;;;;;;;42.03;22.45;;;-4.70;99.90;;;;;;5074608;28;20117;-59
2022/03/07 04:50:09;;;;;;;42.45;22.38;;;-4.70;99.90;;;;;;5076009;28;20647;-59
2022/03/07 04:52:36;;;;;;;38.25;20.92;;;-4.70;99.90;;;;;;5055506;28;20150;-59
2022/03/07 04:55:04;;;;;;;46.70;23.30;;;-4.70;99.90;;;;;;5035414;28;20059;-59
2022/03/07 04:57:31;;;;;;;41.03;22.40;;;-4.80;99.90;;;;;;5036701;28;20049;-60
2022/03/07 04:59:58;;;;;;;41.63;23.70;;;-4.80;99.90;;;;;;5035806;28;20056;-60
2022/03/07 05:02:25;;;;;;;40.97;21.90;;;-4.80;99.90;;;;;;5034949;28;20072;-59
2022/03/07 05:04:52;;;;;;;46.42;24.23;;;-4.80;99.90;;;;;;5034797;28;20710;-60
2022/03/07 05:07:18;;;;;;;44.40;23.38;;;-4.80;99.90;;;;;;5035687;28;20298;-60
2022/03/07 05:09:45;;;;;;;46.35;23.50;;;-4.80;99.90;;;;;;5034980;28;20041;-60
2022/03/07 05:12:12;;;;;;;42.45;22.27;;;-4.80;99.90;;;;;;5035833;28;20098;-59
2022/03/07 05:14:39;;;;;;;49.15;25.23;;;-4.90;99.90;;;;;;5034989;28;20044;-60
2022/03/07 05:17:06;;;;;;;45.65;23.77;;;-4.90;99.90;;;;;;5050290;28;20060;-60
2022/03/07 05:19:32;;;;;;;47.03;25.00;;;-4.90;99.90;;;;;;5034935;28;20049;-59
2022/03/07 05:21:59;;;;;;;42.05;21.80;;;-4.90;99.90;;;;;;5035457;28;20048;-59
2022/03/07 05:24:26;;;;;;;44.00;23.70;;;-4.90;99.90;;;;;;5050400;28;20043;-60
2022/03/07 05:26:53;;;;;;;39.67;22.75;;;-4.90;99.90;;;;;;5075008;28;20052;-59
2022/03/07 05:29:21;;;;;;;44.30;23.30;;;-4.90;99.90;;;;;;5064763;28;20917;-59
2022/03/07 05:31:48;;;;;;;45.63;24.50;;;-4.90;99.90;;;;;;5054857;28;20037;-59
2022/03/07 05:34:14;;;;;;;43.28;23.77;;;-4.90;99.90;;;;;;5055142;28;20053;-59
2022/03/07 05:36:41;;;;;;;46.40;24.48;;;-4.90;99.90;;;;;;5035379;28;20056;-59
2022/03/07 05:39:08;;;;;;;44.58;22.83;;;-4.90;99.90;;;;;;5035298;28;20099;-59
2022/03/07 05:41:36;;;;;;;40.67;21.67;;;-5.00;99.90;;;;;;5034577;28;20558;-59
2022/03/07 05:44:03;;;;;;;41.58;21.88;;;-5.00;99.90;;;;;;5034596;28;20124;-59
2022/03/07 05:46:30;;;;;;;42.88;23.33;;;-5.00;99.90;;;;;;5033575;28;20069;-59
2022/03/07 05:48:57;;;;;;;49.35;23.90;;;-5.00;99.90;;;;;;5035026;28;20056;-59
2022/03/07 05:51:25;;;;;;;45.03;24.02;;;-5.00;99.90;;;;;;5042164;28;20036;-59
2022/03/07 05:53:52;;;;;;;45.92;24.85;;;-5.00;99.90;;;;;;5056628;28;20564;-58
2022/03/07 05:56:18;;;;;;;41.47;23.08;;;-5.00;99.90;;;;;;5054700;28;20052;-59
2022/03/07 05:58:48;;;;;;;45.22;23.67;;;-5.10;99.90;;;;;;5054264;28;20090;-59
2022/03/07 06:01:15;;;;;;;51.15;25.90;;;-5.10;99.90;;;;;;5054756;28;20044;-59
2022/03/07 06:03:42;;;;;;;45.72;24.10;;;-5.00;99.90;;;;;;5053912;28;20049;-58
2022/03/07 06:06:09;;;;;;;46.75;25.10;;;-5.00;99.90;;;;;;5069932;28;20044;-59
2022/03/07 06:08:36;;;;;;;53.53;26.27;;;-5.00;99.90;;;;;;5054270;28;20055;-58
2022/03/07 06:11:03;;;;;;;49.42;26.38;;;-5.10;99.90;;;;;;5054858;28;20068;-58
2022/03/07 06:13:30;;;;;;;53.67;25.90;;;-5.00;99.90;;;;;;5053611;28;20052;-58
2022/03/07 06:15:57;;;;;;;50.40;25.55;;;-5.00;99.90;;;;;;5054119;28;20466;-58
2022/03/07 06:18:25;;;;;;;47.35;24.98;;;-5.00;99.90;;;;;;5054462;28;20053;-58
2022/03/07 06:20:52;;;;;;;48.72;25.73;;;-5.00;99.90;;;;;;5053928;28;20580;-63
2022/03/07 06:23:19;;;;;;;49.17;23.55;;;-4.90;99.90;;;;;;5055302;28;20032;-65
2022/03/07 06:25:46;;;;;;;41.88;24.10;;;-4.90;99.90;;;;;;5063241;28;20709;-57
2022/03/07 06:28:14;;;;;;;45.78;23.92;;;-4.90;99.90;;;;;;5055628;28;20111;-57
2022/03/07 06:30:41;;;;;;;54.17;28.33;;;-4.80;99.90;;;;;;5073660;28;20039;-57
2022/03/07 06:33:08;;;;;;;47.65;23.77;;;-4.80;99.90;;;;;;5070668;28;20102;-58
2022/03/07 06:35:35;;;;;;;48.45;26.80;;;-4.70;99.90;;;;;;5071210;28;20060;-56
2022/03/07 06:38:02;;;;;;;51.42;27.65;;;-4.50;99.90;;;;;;5074824;28;20040;-58
2022/03/07 06:40:29;;;;;;;57.83;27.73;;;-4.40;99.90;;;;;;5074647;28;20044;-58
2022/03/07 06:42:57;;;;;;;48.03;26.15;;;-4.20;99.90;;;;;;5074305;28;20522;-59
2022/03/07 06:45:24;;;;;;;50.65;26.95;;;-4.00;99.90;;;;;;5073961;28;20040;-58
2022/03/07 06:47:51;;;;;;;49.20;25.77;;;-3.80;99.90;;;;;;5073732;28;20082;-56
2022/03/07 06:50:17;;;;;;;59.70;28.15;;;-3.50;99.90;;;;;;5074567;28;20040;-56
2022/03/07 06:52:44;;;;;;;59.13;27.60;;;-3.30;99.90;;;;;;5050881;28;20534;-55
2022/03/07 06:55:12;;;;;;;54.97;28.55;;;-3.00;99.90;;;;;;5033793;28;20107;-57
2022/03/07 06:57:40;;;;;;;44.53;25.40;;;-2.80;99.90;;;;;;5034434;28;20045;-59
2022/03/07 07:00:11;;;;;;;52.25;25.88;;;-2.60;99.90;;;;;;5033979;28;20049;-58
2022/03/07 07:02:39;;;;;;;46.47;25.02;;;-2.30;99.90;;;;;;5035323;28;20503;-57
2022/03/07 07:05:07;;;;;;;43.63;25.02;;;-2.00;99.90;;;;;;5035948;28;20640;-59
2022/03/07 07:07:35;;;;;;;40.63;22.70;;;-1.80;99.90;;;;;;5035578;28;20045;-57
2022/03/07 07:10:04;;;;;;;49.22;25.10;;;-1.50;99.90;;;;;;5035617;28;20053;-59
2022/03/07 07:12:31;;;;;;;46.05;23.67;;;-1.30;99.90;;;;;;5036166;28;20114;-59
2022/03/07 07:14:57;;;;;;;;;;;-1.10;99.90;;;;;;5035614;28;20037;-59
2022/03/07 07:17:24;;;;;;;46.20;23.38;;;-0.80;99.90;;;;;;5036320;28;20006;-58
2022/03/07 07:19:51;;;;;;;;;;;-0.70;99.90;;;;;;5036212;28;20457;-59
2022/03/07 07:22:18;;;;;;;43.47;22.20;;;-0.70;99.90;;;;;;5034477;28;20539;-59
2022/03/07 07:24:45;;;;;;;41.00;23.45;;;-0.80;99.90;;;;;;5071114;28;20037;-59
2022/03/07 07:27:12;;;;;;;50.10;27.42;;;-0.80;99.90;;;;;;5055799;28;20044;-59
2022/03/07 07:29:39;;;;;;;51.53;27.35;;;-0.80;99.90;;;;;;5067674;28;20756;-59
2022/03/07 07:32:06;;;;;;;46.35;24.67;;;-0.80;99.90;;;;;;5075506;28;20515;-59
2022/03/07 07:34:33;;;;;;;43.63;24.50;;;-0.80;99.90;;;;;;5068611;28;20097;-58
2022/03/07 07:37:00;;;;;;;45.25;25.75;;;-0.90;99.90;;;;;;5075139;28;20036;-59
2022/03/07 07:39:38;;;;;;;47.05;23.98;;;-0.90;99.90;;;;;;5075446;28;20044;-58
2022/03/07 07:42:05;;;;;;;47.67;26.85;;;-0.80;99.90;;;;;;5075295;28;20047;-59
2022/03/07 07:44:38;;;;;;;52.03;26.30;;;-0.80;99.90;;;;;;5072831;28;20052;-60
2022/03/07 07:47:07;;;;;;;45.55;25.50;;;-0.60;99.90;;;;;;5074946;28;20541;-59
2022/03/07 07:49:34;;;;;;;44.15;25.00;;;-0.50;99.90;;;;;;5075685;28;20044;-58
2022/03/07 07:52:02;;;;;;;53.33;26.15;;;-0.40;99.90;;;;;;5064034;28;20564;-59
2022/03/07 07:54:30;;;;;;;35.58;22.42;;;-0.30;99.90;;;;;;5033936;28;20111;-59
2022/03/07 07:56:58;;;;;;;39.22;21.77;;;-0.30;99.90;;;;;;5035320;28;20053;-59
2022/03/07 07:59:25;;;;;;;42.00;24.55;;;-0.20;99.90;;;;;;5034274;28;20049;-59
2022/03/07 08:01:51;;;;;;;39.08;23.90;;;-0.20;99.90;;;;;;5034838;28;20126;-58
2022/03/07 08:04:18;;;;;;;44.72;24.90;;;-0.20;99.90;;;;;;5033611;28;20037;-59
2022/03/07 08:06:45;;;;;;;;;;;-0.10;99.90;;;;;;5035008;28;20402;-59
2022/03/07 08:09:11;;;;;;;37.72;22.42;;;-0.10;99.90;;;;;;5033654;28;20574;-59
2022/03/07 08:11:38;;;;;;;;;;;-0.10;99.90;;;;;;5035350;28;20041;-59
2022/03/07 08:14:05;;;;;;;40.58;25.35;;;-0.10;99.90;;;;;;5033877;28;19959;-59
2022/03/07 08:16:31;;;;;;;;;;;-0.10;99.90;;;;;;5035046;28;20558;-59
2022/03/07 08:18:58;;;;;;;33.45;22.42;;;-0.20;99.90;;;;;;5035105;28;20047;-59
2022/03/07 08:21:25;;;;;;;35.00;23.77;;;-0.20;99.90;;;;;;5033834;28;20329;-59
2022/03/07 08:23:53;;;;;;;;;;;-0.20;99.90;;;;;;5046556;28;20055;-59
2022/03/07 08:26:20;;;;;;;39.50;25.30;;;-0.30;99.90;;;;;;5069197;28;19924;-60
2022/03/07 08:28:47;;;;;;;37.97;24.50;;;-0.30;99.90;;;;;;5067635;28;20086;-60
2022/03/07 08:31:14;;;;;;;40.90;25.80;;;-0.30;99.90;;;;;;5054033;28;20053;-59
2022/03/07 08:33:41;;;;;;;45.20;25.38;;;-0.40;99.90;;;;;;5059455;28;20047;-58
2022/03/07 08:36:08;;;;;;;;;;;-0.40;99.90;;;;;;5054841;28;20040;-58
2022/03/07 08:38:35;;;;;;;41.30;26.33;;;-0.40;99.90;;;;;;5041063;28;20641;-59
2022/03/07 08:41:02;;;;;;;42.05;27.92;;;-0.40;99.90;;;;;;5033237;28;20041;-58
2022/03/07 08:43:29;;;;;;;39.92;25.92;;;-0.40;99.90;;;;;;5031933;28;20060;-58
2022/03/07 08:45:56;;;;;;;;;;;-0.50;99.90;;;;;;5033929;28;20041;-58
2022/03/07 08:48:23;;;;;;;39.25;25.88;;;-0.40;99.90;;;;;;5032699;28;20483;-56
2022/03/07 08:50:51;;;;;;;36.28;25.92;;;-0.40;99.90;;;;;;5033371;28;20052;-56
2022/03/07 08:53:18;;;;;;;41.30;27.55;;;-0.40;99.90;;;;;;5060149;28;20056;-62
2022/03/07 08:55:45;;;;;;;38.33;26.42;;;-0.40;99.90;;;;;;5052144;28;20075;-58
2022/03/07 08:58:19;;;;;;;43.05;28.27;;;-0.40;99.90;;;;;;5053589;28;20140;-58
2022/03/07 09:00:46;;;;;;;;;;;-0.30;99.90;;;;;;5054372;28;20056;-58
2022/03/07 09:03:13;;;;;;;41.70;26.52;;;-0.30;99.90;;;;;;5053776;28;19924;-58
2022/03/07 09:05:39;;;;;;;40.45;25.50;;;-0.20;99.90;;;;;;5068184;28;20082;-58
2022/03/07 09:08:06;;;;;;;;;;;0.00;99.90;;;;;;5054758;28;20029;-58
2022/03/07 09:10:33;;;;;;;36.10;24.35;;;0.00;99.90;;;;;;5053618;28;19967;-58
2022/03/07 09:13:00;;;;;;;38.63;24.42;;;0.10;99.90;;;;;;5052744;28;20207;-58
2022/03/07 09:15:27;;;;;;;41.35;26.42;;;0.30;99.90;;;;;;5053165;28;20048;-58
2022/03/07 09:17:54;;;;;;;;;;;0.40;99.90;;;;;;5054263;28;20721;-59
2022/03/07 09:20:21;;;;;;;40.38;25.65;;;0.60;99.90;;;;;;5053466;28;19924;-58
2022/03/07 09:22:48;;;;;;;40.33;24.88;;;0.80;99.90;;;;;;5056260;28;20097;-58
2022/03/07 09:25:15;;;;;;;42.33;25.95;;;1.00;99.90;;;;;;5065804;28;20037;-58
2022/03/07 09:27:44;;;;;;;42.00;26.08;;;1.10;99.90;;;;;;5052939;28;20717;-59
2022/03/07 09:30:12;;;;;;;37.95;24.98;;;1.20;99.90;;;;;;5070324;28;20039;-59
2022/03/07 09:32:40;;;;;;;43.60;25.85;;;1.30;99.90;;;;;;5072154;28;20055;-58
2022/03/07 09:35:07;;;;;;;34.20;23.40;;;1.50;99.90;;;;;;5065432;28;20040;-58
2022/03/07 09:37:34;;;;;;;43.97;27.33;;;1.60;99.90;;;;;;5059846;28;20051;-58
2022/03/07 09:40:01;;;;;;;41.58;26.02;;;1.80;99.90;;;;;;5053074;28;20056;-59
2022/03/07 09:42:28;;;;;;;35.58;25.55;;;2.10;99.90;;;;;;5035055;28;20103;-60
2022/03/07 09:44:55;;;;;;;;;;;2.50;99.90;;;;;;5035185;28;20048;-57
2022/03/07 09:47:22;;;;;;;25.60;17.05;;;3.00;99.90;;;;;;5053123;28;19959;-58
2022/03/07 09:49:51;;;;;;;37.75;25.77;;;3.10;99.90;;;;;;5052833;28;20040;-58
2022/03/07 09:52:18;;;;;;;40.63;24.58;;;3.30;99.90;;;;;;5060506;28;20040;-59
2022/03/07 09:54:44;;;;;;;33.97;23.40;;;3.60;99.90;;;;;;5051650;28;20724;-59
2022/03/07 09:57:12;;;;;;;;;;;3.90;98.70;;;;;;5054054;28;20508;-57
2022/03/07 09:59:38;;;;;;;34.47;22.55;;;4.20;97.30;;;;;;5053298;28;19924;-58
2022/03/07 10:02:12;;;;;;;36.15;23.25;;;4.40;96.50;;;;;;5053023;28;20052;-58
2022/03/07 10:04:42;;;;;;;30.00;22.75;;;4.70;94.50;;;;;;5052470;28;20056;-58
2022/03/07 10:07:09;;;;;;;33.35;22.55;;;5.20;93.40;;;;;;5053171;28;20051;-56
2022/03/07 10:09:36;;;;;;;34.10;22.88;;;5.60;91.80;;;;;;5052862;28;20716;-57
2022/03/07 10:12:03;;;;;;;32.33;21.25;;;6.10;90.30;;;;;;5051851;28;20102;-57
2022/03/07 10:14:44;;;;;;;37.75;24.13;;;6.60;86.70;;;;;;5052051;28;20048;-56
2022/03/07 10:17:24;;;;;;;30.83;20.92;;;6.80;80.90;;;;;;5052679;28;20040;-58
2022/03/07 10:19:53;;;;;;;32.53;22.70;;;7.10;78.70;;;;;;5050845;28;20044;-56
2022/03/07 10:22:26;;;;;;;30.63;22.88;;;7.40;77.60;;;;;;5051826;28;20052;-57
2022/03/07 10:25:06;;;;;;;31.92;20.95;;;7.50;73.80;;;;;;5035347;28;20041;-57
2022/03/07 10:27:40;;;;;;;36.08;23.17;;;7.50;71.00;;;;;;5052377;28;20121;-57
2022/03/07 10:30:13;;;;;;;31.08;20.77;;;7.50;72.30;;;;;;5052316;28;20049;-56
2022/03/07 10:32:41;;;;;;;30.75;21.98;;;7.60;70.70;;;;;;5053164;28;20635;-55
2022/03/07 10:35:19;;;;;;;31.77;20.88;;;7.60;69.00;;;;;;5056995;28;20541;-56
2022/03/07 10:37:46;;;;;;;33.25;21.15;;;7.80;68.40;;;;;;5057012;28;20055;-57
2022/03/07 10:40:21;;;;;;;30.13;22.55;;;8.00;67.30;;;;;;5056701;28;20669;-58
2022/03/07 10:42:50;;;;;;;35.22;22.10;;;8.00;67.40;;;;;;5056362;28;20048;-59
2022/03/07 10:45:17;;;;;;;32.45;22.60;;;8.10;64.60;;;;;;5055599;28;20043;-58
2022/03/07 10:47:53;;;;;;;27.90;20.95;;;8.10;64.40;;;;;;5052045;28;20083;-58
2022/03/07 10:50:22;;;;;;;33.97;23.07;;;8.30;64.00;;;;;;5052257;28;20036;-58
2022/03/07 10:52:52;;;;;;;31.40;22.35;;;8.60;62.80;;;;;;5040923;28;20149;-58
2022/03/07 10:55:24;;;;;;;28.98;21.77;;;8.70;63.20;;;;;;5035026;28;20045;-58
2022/03/07 10:57:52;;;;;;;36.25;22.00;;;8.70;62.20;;;;;;5035406;28;20037;-58
2022/03/07 11:00:22;;;;;;;31.20;22.88;;;8.70;62.70;;;;;;5035181;28;20123;-58
2022/03/07 11:02:49;;;;;;;30.27;21.65;;;8.80;62.20;;;;;;5035728;28;20095;-58
2022/03/07 11:05:17;;;;;;;35.05;24.73;;;8.70;60.10;;;;;;5035522;28;20033;-57
2022/03/07 11:07:46;;;;;;;32.28;22.27;;;8.60;60.30;;;;;;5035997;28;20048;-59
2022/03/07 11:10:14;;;;;;;34.25;23.45;;;8.50;61.10;;;;;;5036172;28;20045;-58
2022/03/07 11:12:41;;;;;;;36.83;24.70;;;8.50;60.90;;;;;;5035784;28;20040;-58
2022/03/07 11:15:09;;;;;;;31.90;23.23;;;8.50;61.00;;;;;;5035189;28;20049;-58
2022/03/07 11:17:39;;;;;;;33.80;23.85;;;8.50;59.80;;;;;;5036360;28;20068;-58
2022/03/07 11:20:08;;;;;;;35.10;24.63;;;8.40;60.00;;;;;;5036135;28;20049;-58
2022/03/07 11:22:35;;;;;;;35.85;24.02;;;8.40;60.20;;;;;;5037691;28;20041;-58
2022/03/07 11:25:02;;;;;;;;;;;8.50;60.70;;;;;;5035507;28;20102;-58
2022/03/07 11:27:30;;;;;;;33.45;22.67;;;8.60;60.70;;;;;;5036165;28;19925;-58
2022/03/07 11:29:57;;;;;;;33.35;23.17;;;8.70;59.00;;;;;;5044982;28;20776;-58
2022/03/07 11:32:24;;;;;;;30.65;23.67;;;8.80;58.30;;;;;;5035430;28;20045;-58
2022/03/07 11:34:57;;;;;;;36.72;25.42;;;8.90;58.70;;;;;;5057280;28;20565;-58
2022/03/07 11:37:29;;;;;;;36.78;24.65;;;8.90;58.80;;;;;;5055841;28;20032;-58
2022/03/07 11:39:58;;;;;;;38.33;23.85;;;8.70;58.00;;;;;;5054568;28;20100;-58
2022/03/07 11:42:38;;;;;;;38.42;24.20;;;8.60;58.80;;;;;;5054051;28;20032;-58
2022/03/07 11:45:16;;;;;;;33.20;24.40;;;8.70;58.30;;;;;;5054236;28;20536;-57
2022/03/07 11:47:44;;;;;;;38.40;24.88;;;8.90;58.60;;;;;;5054754;28;20033;-58
2022/03/07 11:50:12;;;;;;;34.28;25.35;;;8.80;58.30;;;;;;5054450;28;20039;-58
2022/03/07 11:52:39;;;;;;;38.90;25.13;;;8.70;58.20;;;;;;5062211;28;20047;-59
2022/03/07 11:55:12;;;;;;;35.10;24.90;;;8.60;58.60;;;;;;5041442;28;20052;-58
2022/03/07 11:57:43;;;;;;;33.63;23.90;;;8.40;58.60;;;;;;5035143;28;20446;-58
2022/03/07 12:00:10;;;;;;;34.28;24.05;;;8.20;60.10;;;;;;5035564;28;20363;-58
2022/03/07 12:02:40;;;;;;;;;;;8.20;60.00;;;;;;5035873;28;20118;-58
2022/03/07 12:05:19;;;;;;;35.95;25.17;;;8.20;59.50;;;;;;5034239;28;19924;-57
2022/03/07 12:07:46;;;;;;;32.55;23.85;;;8.30;59.90;;;;;;5034822;28;20057;-57
2022/03/07 12:10:13;;;;;;;37.78;25.45;;;8.40;58.60;;;;;;5035412;28;20049;-58
2022/03/07 12:12:39;;;;;;;;;;;8.60;57.40;;;;;;5035529;28;20138;-58
2022/03/07 12:15:26;;;;;;;31.98;23.60;;;8.80;57.90;;;;;;5034667;28;20016;-59
2022/03/07 12:17:53;;;;;;;;;;;8.80;57.40;;;;;;5035329;28;20053;-58
2022/03/07 12:20:19;;;;;;;36.17;25.08;;;9.00;56.30;;;;;;5035036;28;20007;-58
2022/03/07 12:22:46;;;;;;;32.03;24.50;;;9.10;56.10;;;;;;5039862;28;20048;-58
2022/03/07 12:25:13;;;;;;;;;;;9.10;55.50;;;;;;5054008;28;20071;-58
2022/03/07 12:27:41;;;;;;;32.78;25.23;;;9.10;56.40;;;;;;5055075;28;19935;-57
2022/03/07 12:30:09;;;;;;;30.63;22.90;;;9.00;56.50;;;;;;5037052;28;20447;-58
2022/03/07 12:32:38;;;;;;;29.88;22.10;;;8.80;55.80;;;;;;5035083;28;20514;-59
2022/03/07 12:35:06;;;;;;;30.92;22.00;;;8.80;56.40;;;;;;5058329;28;20596;-58
2022/03/07 12:37:33;;;;;;;32.22;23.15;;;9.00;56.00;;;;;;5054200;28;20105;-58
2022/03/07 12:40:02;;;;;;;;;;;9.20;54.70;;;;;;5055489;28;20309;-58
2022/03/07 12:42:31;;;;;;;32.47;23.02;;;9.30;55.60;;;;;;5053937;28;19924;-58